Agios Georgios I — SX9857 — position and weather

sailwx.info

Track history (hours):
 
Tides and Currents Weather Stations Pressure Air Temp Water Temp Dewpoint Dewpoint Depression Visibility Wind Speed Wind Dir Waves Ship Positions

Agios Georgios I

Last reported at 2014-Aug-21 02:27 UTC. Time now 2014-Aug-21 08:17 UTC.
Position N 39°43' E 025°25'.

Length 59 m; draft 5 m.

Type: Ship (hazmat cat B). MMSI: 239912000.

Date/timePositionNaut miles runAvg speedWind from/ knotsBaromVisibWave heightAir tempDewpointWater temp
2014-Aug-21 02:27N 39°43' E 025°25'29 9.1
2014-Aug-20 23:14N 39°28' E 025°58'  
2014-Aug-18 18:25N 37°39' E 023°47'6 7.4
2014-Aug-18 17:34N 37°43' E 023°41'9 8.8
2014-Aug-18 16:33N 37°51' E 023°36'7 6.9
2014-Aug-18 15:34N 37°57' E 023°35'0 0.0
2014-Aug-18 14:33N 37°57' E 023°35'0 0.0
2014-Aug-18 13:34N 37°57' E 023°35'0 0.0
2014-Aug-18 12:33N 37°57' E 023°35'0 0.0
2014-Aug-18 11:33N 37°57' E 023°35'0 0.0
2014-Aug-18 10:34N 37°57' E 023°35'0 0.0
2014-Aug-18 09:34N 37°57' E 023°35'0 0.0
2014-Aug-18 08:34N 37°57' E 023°35'0 0.0
2014-Aug-18 07:34N 37°57' E 023°35'0 0.0
2014-Aug-18 06:34N 37°57' E 023°35'0 0.0
2014-Aug-18 05:26N 37°57' E 023°35'0 0.3
2014-Aug-18 04:33N 37°57' E 023°35'0 0.0
2014-Aug-18 03:34N 37°57' E 023°35'0 0.0
2014-Aug-18 02:33N 37°57' E 023°35'0 0.0
2014-Aug-18 01:34N 37°57' E 023°35'0 0.0
2014-Aug-18 00:33N 37°57' E 023°35'50 6.2
2014-Aug-17 16:33N 37°31' E 024°28'11 9.2
2014-Aug-17 15:24N 37°31' E 024°42'13 7.2
2014-Aug-17 13:33N 37°27' E 024°58'2 1.7
2014-Aug-17 12:33N 37°26' E 024°56'0 0.0
2014-Aug-17 11:30N 37°26' E 024°56'0 0.0
2014-Aug-17 10:33N 37°26' E 024°56'0 0.0
2014-Aug-17 09:33N 37°26' E 024°56'0 0.0
2014-Aug-17 08:32N 37°26' E 024°56'0 0.0
2014-Aug-17 07:32N 37°26' E 024°56'0 0.0
2014-Aug-17 06:32N 37°26' E 024°56'0 0.0
2014-Aug-17 05:33N 37°26' E 024°56'7 6.6
2014-Aug-17 04:34N 37°26' E 025°04'9 8.6
2014-Aug-17 03:33N 37°27' E 025°15'3 3.4
2014-Aug-17 02:33N 37°28' E 025°19'0 0.0
2014-Aug-17 01:33N 37°28' E 025°19'0 0.0
2014-Aug-17 00:33N 37°28' E 025°19'0 0.0
2014-Aug-16 23:33N 37°28' E 025°19'0 0.0
2014-Aug-16 22:33N 37°28' E 025°19'0 0.0
2014-Aug-16 21:33N 37°28' E 025°19'0 0.0
2014-Aug-16 20:34N 37°28' E 025°19'1 1.1
2014-Aug-16 19:33N 37°27' E 025°19'0 0.0
2014-Aug-16 18:32N 37°27' E 025°19'0 0.0
2014-Aug-16 17:31N 37°27' E 025°19'1 0.8
2014-Aug-16 16:33N 37°28' E 025°19'6 5.9
2014-Aug-16 15:34N 37°22' E 025°17'9 9.1
2014-Aug-16 14:33N 37°14' E 025°12'9 9.0
2014-Aug-16 13:33N 37°05' E 025°08'1 1.2
2014-Aug-16 12:33N 37°05' E 025°09'0 0.0
2014-Aug-16 11:33N 37°05' E 025°09'0 0.0
2014-Aug-16 10:32N 37°05' E 025°09'0 0.0
2014-Aug-16 09:33N 37°05' E 025°09'0 0.0
2014-Aug-16 08:32N 37°05' E 025°09'0 0.0
2014-Aug-16 07:32N 37°05' E 025°09'0 0.0
2014-Aug-16 06:33N 37°05' E 025°09'0 0.1
2014-Aug-16 05:32N 37°05' E 025°09'0 0.5
2014-Aug-16 04:31N 37°05' E 025°08'0 0.0
2014-Aug-16 03:32N 37°05' E 025°08'0 0.0
2014-Aug-16 02:33N 37°05' E 025°08'0 0.0
2014-Aug-16 01:33N 37°05' E 025°08'0 0.0
2014-Aug-16 00:33N 37°05' E 025°08'0 0.0
2014-Aug-15 23:33N 37°05' E 025°08'0 0.0
2014-Aug-15 22:32N 37°05' E 025°08'0 0.0
2014-Aug-15 21:32N 37°05' E 025°08'0 0.0
2014-Aug-15 20:33N 37°05' E 025°08'0 0.0
2014-Aug-15 19:32N 37°05' E 025°08'0 0.0
2014-Aug-15 18:32N 37°05' E 025°08'0 0.0
2014-Aug-15 17:32N 37°05' E 025°08'0 0.0
2014-Aug-15 16:32N 37°05' E 025°08'0 0.0
2014-Aug-15 15:32N 37°05' E 025°08'0 0.0
2014-Aug-15 14:33N 37°05' E 025°08'0 0.0
2014-Aug-15 13:33N 37°05' E 025°08'0 0.0
2014-Aug-15 12:32N 37°05' E 025°08'0 0.0
2014-Aug-15 11:32N 37°05' E 025°08'0 0.0
2014-Aug-15 10:33N 37°05' E 025°08'0 0.3
2014-Aug-15 09:34N 37°05' E 025°08'7 7.3
2014-Aug-15 08:33N 37°10' E 025°15'7 6.9
2014-Aug-15 07:33N 37°06' E 025°22'0 0.4
2014-Aug-15 06:33N 37°06' E 025°22'0 0.4
2014-Aug-15 05:33N 37°06' E 025°22'0 0.0
2014-Aug-15 04:33N 37°06' E 025°22'0 0.0
2014-Aug-15 03:33N 37°06' E 025°22'0 0.0
2014-Aug-15 02:33N 37°06' E 025°22'0 0.0
2014-Aug-15 01:33N 37°06' E 025°22'0 0.0
2014-Aug-15 00:33N 37°06' E 025°22'2 2.4
2014-Aug-14 23:33N 37°08' E 025°21'8 8.2
2014-Aug-14 22:33N 37°17' E 025°20'8 8.5
2014-Aug-14 21:33N 37°25' E 025°17'3 3.5
2014-Aug-14 20:33N 37°28' E 025°20'0 0.0
2014-Aug-14 19:33N 37°28' E 025°20'0 0.0
2014-Aug-14 18:33N 37°28' E 025°20'0 0.0
2014-Aug-14 17:33N 37°28' E 025°20'3 2.5
2014-Aug-14 16:33N 37°28' E 025°16'7 6.9
2014-Aug-14 15:33N 37°32' E 025°09'0 0.0
2014-Aug-14 14:33N 37°32' E 025°09'0 0.0
2014-Aug-14 13:33N 37°32' E 025°09'0 0.0
2014-Aug-14 12:33N 37°32' E 025°09'6 6.1
2014-Aug-14 11:33N 37°33' E 025°17'8 8.4
2014-Aug-14 10:33N 37°39' E 025°24'8 8.3
2014-Aug-14 09:33N 37°45' E 025°32'8 7.9
2014-Aug-14 08:33N 37°51' E 025°38'8 8.0
2014-Aug-14 07:33N 37°56' E 025°46'28 0.7
2014-Aug-12 13:03N 38°23' E 025°53'7 1.1
2014-Aug-12 06:33N 38°18' E 025°48'8 7.7
2014-Aug-12 05:32N 38°15' E 025°38'8 7.8
2014-Aug-12 04:32N 38°12' E 025°29'8 7.6
2014-Aug-12 03:31N 38°09' E 025°20'47 8.0
2014-Aug-11 21:33N 37°48' E 024°26'19 7.7
2014-Aug-11 19:05N 37°38' E 024°06'4 7.7
2014-Aug-11 18:30N 37°38' E 024°00'9 7.9
2014-Aug-11 17:25N 37°39' E 023°49'7 7.7
2014-Aug-11 16:33N 37°41' E 023°42'8 8.5
2014-Aug-11 15:33N 37°49' E 023°37'8 8.4
2014-Aug-11 14:33N 37°57' E 023°35'0 0.3
2014-Aug-11 13:34N 37°57' E 023°35'0 0.0
2014-Aug-11 12:34N 37°57' E 023°35'0 0.0
2014-Aug-11 11:34N 37°57' E 023°35'0 0.0
2014-Aug-11 10:34N 37°57' E 023°35'0 0.0
2014-Aug-11 09:33N 37°57' E 023°35'0 0.0
2014-Aug-11 08:33N 37°57' E 023°35'0 0.0
2014-Aug-11 07:33N 37°57' E 023°35'0 0.0
2014-Aug-11 06:34N 37°57' E 023°35'3 3.2
2014-Aug-11 05:33N 37°54' E 023°36'7 7.4
2014-Aug-11 04:34N 37°48' E 023°41'8 7.6
2014-Aug-11 03:33N 37°41' E 023°45'7 7.2
2014-Aug-11 02:33N 37°38' E 023°53'  
Track history (hours):
 
Tides and Currents Weather Stations Pressure Air Temp Water Temp Dewpoint Dewpoint Depression Visibility Wind Speed Wind Dir Waves Ship Positions

Agios Georgios I

Last reported at 2014-Aug-21 02:27 UTC. Time now 2014-Aug-21 08:17 UTC.
Position N 39°43' E 025°25'.

Length 59 m; draft 5 m.

Type: Ship (hazmat cat B). MMSI: 239912000.

Date/timePositionNaut miles runAvg speedWind from/ knotsBaromVisibWave heightAir tempDewpointWater temp
2014-Aug-21 02:27N 39°43' E 025°25'29 9.1
2014-Aug-20 23:14N 39°28' E 025°58'  
2014-Aug-18 18:25N 37°39' E 023°47'6 7.4
2014-Aug-18 17:34N 37°43' E 023°41'9 8.8
2014-Aug-18 16:33N 37°51' E 023°36'7 6.9
2014-Aug-18 15:34N 37°57' E 023°35'0 0.0
2014-Aug-18 14:33N 37°57' E 023°35'0 0.0
2014-Aug-18 13:34N 37°57' E 023°35'0 0.0
2014-Aug-18 12:33N 37°57' E 023°35'0 0.0
2014-Aug-18 11:33N 37°57' E 023°35'0 0.0
2014-Aug-18 10:34N 37°57' E 023°35'0 0.0
2014-Aug-18 09:34N 37°57' E 023°35'0 0.0
2014-Aug-18 08:34N 37°57' E 023°35'0 0.0
2014-Aug-18 07:34N 37°57' E 023°35'0 0.0
2014-Aug-18 06:34N 37°57' E 023°35'0 0.0
2014-Aug-18 05:26N 37°57' E 023°35'0 0.3
2014-Aug-18 04:33N 37°57' E 023°35'0 0.0
2014-Aug-18 03:34N 37°57' E 023°35'0 0.0
2014-Aug-18 02:33N 37°57' E 023°35'0 0.0
2014-Aug-18 01:34N 37°57' E 023°35'0 0.0
2014-Aug-18 00:33N 37°57' E 023°35'50 6.2
2014-Aug-17 16:33N 37°31' E 024°28'11 9.2
2014-Aug-17 15:24N 37°31' E 024°42'13 7.2
2014-Aug-17 13:33N 37°27' E 024°58'2 1.7
2014-Aug-17 12:33N 37°26' E 024°56'0 0.0
2014-Aug-17 11:30N 37°26' E 024°56'0 0.0
2014-Aug-17 10:33N 37°26' E 024°56'0 0.0
2014-Aug-17 09:33N 37°26' E 024°56'0 0.0
2014-Aug-17 08:32N 37°26' E 024°56'0 0.0
2014-Aug-17 07:32N 37°26' E 024°56'0 0.0
2014-Aug-17 06:32N 37°26' E 024°56'0 0.0
2014-Aug-17 05:33N 37°26' E 024°56'7 6.6
2014-Aug-17 04:34N 37°26' E 025°04'9 8.6
2014-Aug-17 03:33N 37°27' E 025°15'3 3.4
2014-Aug-17 02:33N 37°28' E 025°19'0 0.0
2014-Aug-17 01:33N 37°28' E 025°19'0 0.0
2014-Aug-17 00:33N 37°28' E 025°19'0 0.0
2014-Aug-16 23:33N 37°28' E 025°19'0 0.0
2014-Aug-16 22:33N 37°28' E 025°19'0 0.0
2014-Aug-16 21:33N 37°28' E 025°19'0 0.0
2014-Aug-16 20:34N 37°28' E 025°19'1 1.1
2014-Aug-16 19:33N 37°27' E 025°19'0 0.0
2014-Aug-16 18:32N 37°27' E 025°19'0 0.0
2014-Aug-16 17:31N 37°27' E 025°19'1 0.8
2014-Aug-16 16:33N 37°28' E 025°19'6 5.9
2014-Aug-16 15:34N 37°22' E 025°17'9 9.1
2014-Aug-16 14:33N 37°14' E 025°12'9 9.0
2014-Aug-16 13:33N 37°05' E 025°08'1 1.2
2014-Aug-16 12:33N 37°05' E 025°09'0 0.0
2014-Aug-16 11:33N 37°05' E 025°09'0 0.0
2014-Aug-16 10:32N 37°05' E 025°09'0 0.0
2014-Aug-16 09:33N 37°05' E 025°09'0 0.0
2014-Aug-16 08:32N 37°05' E 025°09'0 0.0
2014-Aug-16 07:32N 37°05' E 025°09'0 0.0
2014-Aug-16 06:33N 37°05' E 025°09'0 0.1
2014-Aug-16 05:32N 37°05' E 025°09'0 0.5
2014-Aug-16 04:31N 37°05' E 025°08'0 0.0
2014-Aug-16 03:32N 37°05' E 025°08'0 0.0
2014-Aug-16 02:33N 37°05' E 025°08'0 0.0
2014-Aug-16 01:33N 37°05' E 025°08'0 0.0
2014-Aug-16 00:33N 37°05' E 025°08'0 0.0
2014-Aug-15 23:33N 37°05' E 025°08'0 0.0
2014-Aug-15 22:32N 37°05' E 025°08'0 0.0
2014-Aug-15 21:32N 37°05' E 025°08'0 0.0
2014-Aug-15 20:33N 37°05' E 025°08'0 0.0
2014-Aug-15 19:32N 37°05' E 025°08'0 0.0
2014-Aug-15 18:32N 37°05' E 025°08'0 0.0
2014-Aug-15 17:32N 37°05' E 025°08'0 0.0
2014-Aug-15 16:32N 37°05' E 025°08'0 0.0
2014-Aug-15 15:32N 37°05' E 025°08'0 0.0
2014-Aug-15 14:33N 37°05' E 025°08'0 0.0
2014-Aug-15 13:33N 37°05' E 025°08'0 0.0
2014-Aug-15 12:32N 37°05' E 025°08'0 0.0
2014-Aug-15 11:32N 37°05' E 025°08'0 0.0
2014-Aug-15 10:33N 37°05' E 025°08'0 0.3
2014-Aug-15 09:34N 37°05' E 025°08'7 7.3
2014-Aug-15 08:33N 37°10' E 025°15'7 6.9
2014-Aug-15 07:33N 37°06' E 025°22'0 0.4
2014-Aug-15 06:33N 37°06' E 025°22'0 0.4
2014-Aug-15 05:33N 37°06' E 025°22'0 0.0
2014-Aug-15 04:33N 37°06' E 025°22'0 0.0
2014-Aug-15 03:33N 37°06' E 025°22'0 0.0
2014-Aug-15 02:33N 37°06' E 025°22'0 0.0
2014-Aug-15 01:33N 37°06' E 025°22'0 0.0
2014-Aug-15 00:33N 37°06' E 025°22'2 2.4
2014-Aug-14 23:33N 37°08' E 025°21'8 8.2
2014-Aug-14 22:33N 37°17' E 025°20'8 8.5
2014-Aug-14 21:33N 37°25' E 025°17'3 3.5
2014-Aug-14 20:33N 37°28' E 025°20'0 0.0
2014-Aug-14 19:33N 37°28' E 025°20'0 0.0
2014-Aug-14 18:33N 37°28' E 025°20'0 0.0
2014-Aug-14 17:33N 37°28' E 025°20'3 2.5
2014-Aug-14 16:33N 37°28' E 025°16'7 6.9
2014-Aug-14 15:33N 37°32' E 025°09'0 0.0
2014-Aug-14 14:33N 37°32' E 025°09'0 0.0
2014-Aug-14 13:33N 37°32' E 025°09'0 0.0
2014-Aug-14 12:33N 37°32' E 025°09'6 6.1
2014-Aug-14 11:33N 37°33' E 025°17'8 8.4
2014-Aug-14 10:33N 37°39' E 025°24'8 8.3
2014-Aug-14 09:33N 37°45' E 025°32'8 7.9
2014-Aug-14 08:33N 37°51' E 025°38'8 8.0
2014-Aug-14 07:33N 37°56' E 025°46'28 0.7
2014-Aug-12 13:03N 38°23' E 025°53'7 1.1
2014-Aug-12 06:33N 38°18' E 025°48'8 7.7
2014-Aug-12 05:32N 38°15' E 025°38'8 7.8
2014-Aug-12 04:32N 38°12' E 025°29'8 7.6
2014-Aug-12 03:31N 38°09' E 025°20'47 8.0
2014-Aug-11 21:33N 37°48' E 024°26'19 7.7
2014-Aug-11 19:05N 37°38' E 024°06'4 7.7
2014-Aug-11 18:30N 37°38' E 024°00'9 7.9
2014-Aug-11 17:25N 37°39' E 023°49'7 7.7
2014-Aug-11 16:33N 37°41' E 023°42'8 8.5
2014-Aug-11 15:33N 37°49' E 023°37'8 8.4
2014-Aug-11 14:33N 37°57' E 023°35'0 0.3
2014-Aug-11 13:34N 37°57' E 023°35'0 0.0
2014-Aug-11 12:34N 37°57' E 023°35'0 0.0
2014-Aug-11 11:34N 37°57' E 023°35'0 0.0
2014-Aug-11 10:34N 37°57' E 023°35'0 0.0
2014-Aug-11 09:33N 37°57' E 023°35'0 0.0
2014-Aug-11 08:33N 37°57' E 023°35'0 0.0
2014-Aug-11 07:33N 37°57' E 023°35'0 0.0
2014-Aug-11 06:34N 37°57' E 023°35'3 3.2
2014-Aug-11 05:33N 37°54' E 023°36'7 7.4
2014-Aug-11 04:34N 37°48' E 023°41'8 7.6
2014-Aug-11 03:33N 37°41' E 023°45'7 7.2
2014-Aug-11 02:33N 37°38' E 023°53'  

Dump ship's entire track history